createdAt,value
2018-08-25T00:01:07.608Z,69.12
2018-08-25T00:03:36.486Z,68.67
2018-08-25T00:06:05.741Z,69.09
2018-08-25T00:08:34.641Z,68.68
2018-08-25T00:11:04.273Z,68.09
2018-08-25T00:13:33.257Z,68.76
2018-08-25T00:16:02.243Z,68.70
2018-08-25T00:18:31.229Z,68.05
2018-08-25T00:21:00.254Z,69.66
2018-08-25T00:23:29.150Z,69.40
2018-08-25T00:25:58.141Z,68.27
2018-08-25T00:28:27.092Z,68.96
2018-08-25T00:31:01.352Z,68.69
2018-08-25T00:33:30.232Z,68.21
2018-08-25T00:35:59.205Z,67.43
2018-08-25T00:38:28.156Z,68.44
2018-08-25T00:40:57.048Z,68.63
2018-08-25T00:43:25.917Z,68.20
2018-08-25T00:45:54.880Z,68.56
2018-08-25T00:48:23.853Z,68.58
2018-08-25T00:50:52.753Z,67.42
2018-08-25T00:53:21.725Z,67.31
2018-08-25T00:55:50.606Z,68.33
2018-08-25T00:58:19.693Z,66.90
2018-08-25T01:00:48.641Z,67.85
2018-08-25T01:03:17.535Z,68.93
2018-08-25T01:05:46.434Z,68.53
2018-08-25T01:08:15.380Z,67.69
2018-08-25T01:10:44.266Z,68.17
2018-08-25T01:13:13.177Z,68.59
2018-08-25T01:15:42.259Z,67.76
2018-08-25T01:18:11.097Z,68.67
2018-08-25T01:20:40.059Z,69.16
2018-08-25T01:23:09.022Z,70.14
2018-08-25T01:25:37.888Z,70.16
2018-08-25T01:28:06.806Z,70.16
2018-08-25T01:30:35.806Z,69.37
2018-08-25T01:33:04.920Z,70.88
2018-08-25T01:35:33.845Z,69.93
2018-08-25T01:38:02.815Z,69.59
2018-08-25T01:40:31.684Z,69.35
2018-08-25T01:43:00.589Z,71.83
2018-08-25T01:45:29.570Z,71.71
2018-08-25T01:47:58.462Z,70.47
2018-08-25T01:50:27.361Z,71.23
2018-08-25T01:52:56.375Z,71.99
2018-08-25T01:55:25.257Z,72.12
2018-08-25T01:57:54.124Z,70.78
2018-08-25T02:00:23.113Z,70.90
2018-08-25T02:02:52.112Z,72.28
2018-08-25T02:05:20.972Z,71.83
2018-08-25T02:07:49.940Z,71.29
2018-08-25T02:10:18.816Z,71.00
2018-08-25T02:12:47.700Z,71.50
2018-08-25T02:15:16.705Z,71.28
2018-08-25T02:17:45.604Z,70.23
2018-08-25T02:20:14.479Z,70.26
2018-08-25T02:22:43.416Z,69.98
2018-08-25T02:25:12.325Z,71.02
2018-08-25T02:27:41.216Z,70.65
2018-08-25T02:30:10.161Z,71.93
2018-08-25T02:32:39.029Z,71.96
2018-08-25T02:35:07.952Z,71.58
2018-08-25T02:37:37.098Z,71.80
2018-08-25T02:40:06.065Z,71.56
2018-08-25T02:42:35.455Z,70.61
2018-08-25T02:45:04.868Z,71.19
2018-08-25T02:47:34.473Z,70.59
2018-08-25T02:50:03.377Z,71.16
2018-08-25T02:52:32.564Z,71.79
2018-08-25T02:55:01.454Z,71.32
2018-08-25T02:57:30.363Z,71.67
2018-08-25T02:59:59.347Z,71.44
2018-08-25T03:02:28.243Z,71.23
2018-08-25T03:04:57.158Z,70.69
2018-08-25T03:07:26.309Z,70.93
2018-08-25T03:09:55.256Z,70.84
2018-08-25T03:12:24.131Z,70.24
2018-08-25T03:14:53.040Z,71.13
2018-08-25T03:17:22.039Z,72.10
2018-08-25T03:19:50.931Z,70.82
2018-08-25T03:22:19.891Z,71.01
2018-08-25T03:24:48.772Z,71.12
2018-08-25T03:27:17.671Z,71.03
2018-08-25T03:29:46.585Z,70.77
2018-08-25T03:32:15.430Z,70.62
2018-08-25T03:34:44.357Z,71.64
2018-08-25T03:37:13.333Z,71.76
2018-08-25T03:39:42.228Z,71.82
2018-08-25T03:42:11.114Z,70.84
2018-08-25T03:44:40.845Z,71.32
2018-08-25T03:47:09.743Z,70.99
2018-08-25T03:49:38.669Z,71.64
2018-08-25T03:52:07.575Z,72.21
2018-08-25T03:54:36.455Z,70.64
2018-08-25T03:57:05.436Z,71.02
2018-08-25T03:59:34.346Z,71.80
2018-08-25T04:02:03.220Z,71.06
2018-08-25T04:04:32.192Z,71.64
2018-08-25T04:07:01.099Z,70.57
2018-08-25T04:09:29.977Z,71.16
2018-08-25T04:11:58.929Z,71.39
2018-08-25T04:14:27.816Z,73.19
2018-08-25T04:16:56.756Z,72.40
2018-08-25T04:19:25.809Z,72.90
2018-08-25T04:21:54.978Z,72.21
2018-08-25T04:24:23.871Z,71.53
2018-08-25T04:26:52.835Z,71.89
2018-08-25T04:29:21.747Z,72.24
2018-08-25T04:31:50.608Z,72.84
2018-08-25T04:34:19.592Z,72.46
2018-08-25T04:36:48.458Z,72.47
2018-08-25T04:39:17.331Z,73.82
2018-08-25T04:41:46.299Z,73.95
2018-08-25T04:44:15.156Z,73.75
2018-08-25T04:46:44.084Z,72.11
2018-08-25T04:49:13.040Z,72.64
2018-08-25T04:51:41.926Z,72.96
2018-08-25T04:54:10.802Z,72.88
2018-08-25T04:56:39.756Z,72.28
2018-08-25T04:59:08.614Z,73.84
2018-08-25T05:01:37.512Z,73.27
2018-08-25T05:04:06.676Z,72.87
2018-08-25T05:06:35.669Z,72.08
2018-08-25T05:09:06.764Z,73.26
2018-08-25T05:11:35.715Z,72.97
2018-08-25T05:14:04.576Z,73.24
2018-08-25T05:16:33.475Z,73.02
2018-08-25T05:19:02.481Z,72.60
2018-08-25T05:21:31.498Z,73.19
2018-08-25T05:24:00.366Z,72.85
2018-08-25T05:26:29.325Z,73.30
2018-08-25T05:28:58.215Z,73.13
2018-08-25T05:31:27.141Z,73.32
2018-08-25T05:33:56.126Z,73.35
2018-08-25T05:36:25.034Z,73.36
2018-08-25T05:38:53.925Z,72.67
2018-08-25T05:41:22.915Z,73.89
2018-08-25T05:43:52.441Z,72.59
2018-08-25T05:46:21.364Z,72.72
2018-08-25T05:48:50.338Z,73.64
2018-08-25T05:51:19.217Z,72.96
2018-08-25T05:53:48.132Z,72.65
2018-08-25T05:56:17.100Z,73.04
2018-08-25T05:58:46.022Z,73.76
2018-08-25T06:01:14.891Z,73.23
2018-08-25T06:03:43.860Z,72.84
2018-08-25T06:06:12.741Z,72.81
2018-08-25T06:08:41.622Z,72.56
2018-08-25T06:11:10.581Z,73.15
2018-08-25T06:13:39.529Z,73.53
2018-08-25T06:16:08.366Z,73.28
2018-08-25T06:18:37.328Z,73.26
2018-08-25T06:21:06.266Z,71.95
2018-08-25T06:23:35.337Z,71.47
2018-08-25T06:26:04.315Z,73.11
2018-08-25T06:28:33.178Z,72.13
2018-08-25T06:31:02.082Z,72.55
2018-08-25T06:33:31.022Z,72.31
2018-08-25T06:35:59.974Z,72.69
2018-08-25T06:38:28.898Z,72.72
2018-08-25T06:40:57.877Z,71.81
2018-08-25T06:43:26.800Z,71.86
2018-08-25T06:46:00.994Z,72.27
2018-08-25T06:48:29.924Z,71.91
2018-08-25T06:50:58.800Z,71.25
2018-08-25T06:53:27.787Z,71.95
2018-08-25T06:55:56.701Z,71.75
2018-08-25T06:58:25.568Z,71.49
2018-08-25T07:00:54.714Z,71.76
2018-08-25T07:03:23.633Z,72.02
2018-08-25T07:05:52.626Z,71.88
2018-08-25T07:08:21.591Z,70.98
2018-08-25T07:10:50.665Z,71.95
2018-08-25T07:13:19.560Z,72.15
2018-08-25T07:15:48.536Z,72.27
2018-08-25T07:18:17.409Z,71.75
2018-08-25T07:20:47.270Z,70.96
2018-08-25T07:23:16.207Z,71.87
2018-08-25T07:25:45.207Z,70.74
2018-08-25T07:28:14.122Z,69.87
2018-08-25T07:30:43.048Z,69.50
2018-08-25T07:33:11.895Z,68.86
2018-08-25T07:35:40.859Z,69.12
2018-08-25T07:38:09.856Z,68.77
2018-08-25T07:40:38.671Z,68.33
2018-08-25T07:43:07.613Z,68.62
2018-08-25T07:45:36.515Z,68.70
2018-08-25T07:48:05.455Z,67.83
2018-08-25T07:50:34.531Z,67.47
2018-08-25T07:53:04.366Z,66.76
2018-08-25T07:55:33.272Z,66.78
2018-08-25T07:58:02.242Z,66.48
2018-08-25T08:00:31.145Z,66.65
2018-08-25T08:03:00.041Z,67.56
2018-08-25T08:05:29.072Z,68.21
2018-08-25T08:07:57.892Z,67.26
2018-08-25T08:10:26.785Z,65.77
2018-08-25T08:12:55.763Z,66.09
2018-08-25T08:15:24.659Z,65.77
2018-08-25T08:17:53.540Z,66.09
2018-08-25T08:20:22.499Z,65.96
2018-08-25T08:22:51.376Z,66.14
2018-08-25T08:25:20.259Z,67.91
2018-08-25T08:27:49.285Z,70.46
2018-08-25T08:30:18.165Z,74.51
2018-08-25T08:32:47.064Z,76.36
2018-08-25T08:35:16.008Z,79.15
2018-08-25T08:37:44.887Z,78.63
2018-08-25T08:40:13.760Z,80.03
2018-08-25T08:42:42.728Z,80.54
2018-08-25T08:45:11.600Z,82.18
2018-08-25T08:47:40.531Z,81.92
2018-08-25T08:50:10.521Z,82.42
2018-08-25T08:52:39.881Z,82.48
2018-08-25T08:55:09.005Z,82.29
2018-08-25T08:57:38.550Z,83.38
2018-08-25T09:00:07.766Z,83.61
2018-08-25T09:02:36.740Z,82.97
2018-08-25T09:05:06.037Z,83.98
2018-08-25T09:07:34.958Z,84.54
2018-08-25T09:10:03.902Z,84.64
2018-08-25T09:12:32.919Z,84.33
2018-08-25T09:15:01.839Z,84.88
2018-08-25T09:17:30.714Z,85.12
2018-08-25T09:19:59.675Z,84.86
2018-08-25T09:22:28.558Z,85.35
2018-08-25T09:24:57.433Z,86.12
2018-08-25T09:27:26.470Z,86.92
2018-08-25T09:29:55.354Z,86.20
2018-08-25T09:32:24.237Z,85.57
2018-08-25T09:34:53.153Z,86.82
2018-08-25T09:37:22.060Z,87.51
2018-08-25T09:39:50.935Z,87.12
2018-08-25T09:42:19.834Z,86.00
2018-08-25T09:44:48.760Z,86.62
2018-08-25T09:47:17.665Z,87.11
2018-08-25T09:49:46.625Z,87.02
2018-08-25T09:52:15.500Z,86.56
2018-08-25T09:54:44.380Z,86.09
2018-08-25T09:57:13.324Z,84.45
2018-08-25T09:59:46.895Z,85.09
2018-08-25T10:02:15.859Z,86.25
2018-08-25T10:04:44.748Z,87.08
2018-08-25T10:07:13.634Z,86.97
2018-08-25T10:09:42.597Z,86.58
2018-08-25T10:12:11.471Z,88.50
2018-08-25T10:14:40.365Z,86.88
2018-08-25T10:17:09.331Z,87.23
2018-08-25T10:19:38.243Z,88.37
2018-08-25T10:22:07.143Z,85.68
2018-08-25T10:24:36.102Z,87.89
2018-08-25T10:27:05.021Z,85.67
2018-08-25T10:29:33.903Z,86.44
2018-08-25T10:32:03.057Z,83.07
2018-08-25T10:34:31.941Z,84.63
2018-08-25T10:37:00.843Z,84.56
2018-08-25T10:39:29.786Z,85.62
2018-08-25T10:41:58.681Z,85.54
2018-08-25T10:44:27.542Z,84.39
2018-08-25T10:46:56.435Z,83.54
2018-08-25T10:49:25.340Z,83.66
2018-08-25T10:51:54.222Z,84.17
2018-08-25T10:54:23.687Z,82.98
2018-08-25T10:56:52.563Z,82.72
2018-08-25T10:59:21.462Z,82.78
2018-08-25T11:01:50.416Z,85.14
2018-08-25T11:04:19.310Z,85.19
2018-08-25T11:06:48.177Z,83.02
2018-08-25T11:09:17.087Z,81.16
2018-08-25T11:14:42.711Z,81.33
2018-08-25T11:17:11.600Z,84.71
2018-08-25T11:19:40.496Z,84.05
2018-08-25T11:22:09.483Z,82.92
2018-08-25T11:24:38.468Z,82.78
2018-08-25T11:27:07.422Z,82.00
2018-08-25T11:29:36.378Z,80.92
2018-08-25T11:32:05.358Z,80.33
2018-08-25T11:34:34.273Z,80.80
2018-08-25T11:37:03.185Z,78.66
2018-08-25T11:39:32.187Z,79.82
2018-08-25T11:42:01.085Z,80.20
2018-08-25T11:44:30.068Z,81.63
2018-08-25T11:46:59.053Z,80.23
2018-08-25T11:49:28.962Z,80.67
2018-08-25T11:51:57.952Z,80.82
2018-08-25T11:54:26.861Z,82.20
2018-08-25T11:56:55.788Z,81.41
2018-08-25T11:59:24.775Z,82.51
2018-08-25T12:01:54.205Z,82.01
2018-08-25T12:04:23.104Z,82.20
2018-08-25T12:06:52.073Z,84.50
2018-08-25T12:09:20.985Z,81.37
2018-08-25T12:11:49.881Z,81.49
2018-08-25T12:14:18.846Z,81.94
2018-08-25T12:16:47.774Z,81.69
2018-08-25T12:19:16.776Z,81.83
2018-08-25T12:21:45.727Z,81.55
2018-08-25T12:24:14.673Z,81.17
2018-08-25T12:26:43.588Z,81.98
2018-08-25T12:29:12.517Z,80.92
2018-08-25T12:31:41.426Z,80.25
2018-08-25T12:34:10.384Z,80.04
2018-08-25T12:36:39.381Z,79.16
2018-08-25T12:39:09.746Z,78.83
2018-08-25T12:41:38.652Z,77.48
2018-08-25T12:44:07.730Z,76.99
2018-08-25T12:46:37.022Z,77.90
2018-08-25T12:49:05.936Z,76.90
2018-08-25T12:51:34.917Z,75.03
2018-08-25T12:54:03.824Z,75.13
2018-08-25T12:56:32.820Z,74.53
2018-08-25T12:59:01.803Z,74.89
2018-08-25T13:01:30.695Z,74.54
2018-08-25T13:03:59.576Z,72.69
2018-08-25T13:06:28.536Z,72.76
2018-08-25T13:08:57.468Z,70.93
2018-08-25T13:11:26.348Z,72.39
2018-08-25T13:13:55.253Z,72.74
2018-08-25T13:16:24.236Z,72.52
2018-08-25T13:18:53.119Z,72.33
2018-08-25T13:21:22.437Z,71.88
2018-08-25T13:23:51.310Z,71.63
2018-08-25T13:26:20.205Z,71.79
2018-08-25T13:28:49.166Z,71.22
2018-08-25T13:31:18.139Z,71.07
2018-08-25T13:33:47.004Z,71.16
2018-08-25T13:36:15.962Z,70.74
2018-08-25T13:38:44.881Z,71.64
2018-08-25T13:41:13.794Z,72.40
2018-08-25T13:43:42.731Z,74.99
2018-08-25T13:46:11.582Z,78.29
2018-08-25T13:48:40.549Z,79.76
2018-08-25T13:51:09.561Z,80.98
2018-08-25T13:53:38.409Z,80.49
2018-08-25T13:56:07.309Z,79.72
2018-08-25T13:58:36.309Z,80.48
2018-08-25T14:01:05.176Z,79.59
2018-08-25T14:03:34.058Z,78.96
2018-08-25T14:06:03.015Z,78.63
2018-08-25T14:08:31.901Z,79.62
2018-08-25T14:11:00.772Z,79.33
2018-08-25T14:13:29.732Z,77.28
2018-08-25T14:15:58.641Z,77.85
2018-08-25T14:18:27.501Z,77.47
2018-08-25T14:20:56.431Z,77.05
2018-08-25T14:23:25.308Z,76.35
2018-08-25T14:25:54.207Z,76.40
2018-08-25T14:28:23.141Z,76.51
2018-08-25T14:30:52.012Z,76.03
2018-08-25T14:33:20.882Z,75.95
2018-08-25T14:35:49.895Z,76.17
2018-08-25T14:38:18.845Z,74.28
2018-08-25T14:40:47.744Z,74.46
2018-08-25T14:43:16.663Z,74.96
2018-08-25T14:45:45.578Z,75.05
2018-08-25T14:48:15.612Z,74.25
2018-08-25T14:50:44.570Z,73.51
2018-08-25T14:53:13.997Z,72.59
2018-08-25T14:55:43.525Z,74.08
2018-08-25T14:58:13.317Z,73.30
2018-08-25T15:00:42.195Z,72.99
2018-08-25T15:03:11.094Z,71.79
2018-08-25T15:05:40.045Z,72.07
2018-08-25T15:08:08.939Z,71.63
2018-08-25T15:10:37.829Z,70.80
2018-08-25T15:13:06.752Z,69.78
2018-08-25T15:15:35.633Z,70.02
2018-08-25T15:18:04.520Z,70.21
2018-08-25T15:20:33.469Z,69.90
2018-08-25T15:23:02.333Z,70.71
2018-08-25T15:25:31.226Z,70.81
2018-08-25T15:28:00.168Z,72.47
2018-08-25T15:30:29.039Z,72.27
2018-08-25T15:32:57.919Z,72.93
2018-08-25T15:35:26.879Z,74.49
2018-08-25T15:37:56.107Z,74.54
2018-08-25T15:40:25.061Z,74.65
2018-08-25T15:42:54.030Z,75.54
2018-08-25T15:45:22.937Z,77.21
2018-08-25T15:47:51.808Z,76.75
2018-08-25T15:50:20.784Z,77.11
2018-08-25T15:52:49.650Z,77.29
2018-08-25T15:55:18.577Z,78.01
2018-08-25T15:57:47.537Z,79.08
2018-08-25T16:00:16.388Z,80.65
2018-08-25T16:02:45.261Z,81.46
2018-08-25T16:05:14.212Z,80.31
2018-08-25T16:07:43.072Z,78.92
2018-08-25T16:10:11.932Z,79.31
2018-08-25T16:12:40.870Z,78.82
2018-08-25T16:15:09.764Z,78.61
2018-08-25T16:17:38.629Z,78.04
2018-08-25T16:20:07.667Z,77.75
2018-08-25T16:22:36.499Z,78.37
2018-08-25T16:25:05.387Z,78.00
2018-08-25T16:27:34.331Z,77.66
2018-08-25T16:30:03.241Z,77.97
2018-08-25T16:32:32.114Z,78.59
2018-08-25T16:35:01.119Z,75.79
2018-08-25T16:37:30.017Z,75.94
2018-08-25T16:39:58.968Z,73.52
2018-08-25T16:42:28.016Z,73.24
2018-08-25T16:44:56.903Z,73.61
2018-08-25T16:47:25.769Z,74.62
2018-08-25T16:49:54.784Z,74.92
2018-08-25T16:52:23.684Z,74.17
2018-08-25T16:54:53.004Z,72.12
2018-08-25T16:57:22.038Z,73.95
2018-08-25T16:59:51.080Z,72.84
2018-08-25T17:02:20.061Z,71.91
2018-08-25T17:04:49.045Z,72.28
2018-08-25T17:07:17.956Z,71.96
2018-08-25T17:09:46.922Z,71.41
2018-08-25T17:12:15.834Z,72.26
2018-08-25T17:14:44.768Z,71.46
2018-08-25T17:17:13.756Z,72.21
2018-08-25T17:19:42.656Z,71.84
2018-08-25T17:22:11.707Z,72.28
2018-08-25T17:24:40.659Z,72.92
2018-08-25T17:27:09.506Z,72.77
2018-08-25T17:29:38.392Z,71.71
2018-08-25T17:32:07.411Z,72.16
2018-08-25T17:34:36.288Z,72.77
2018-08-25T17:37:05.194Z,73.12
2018-08-25T17:39:34.144Z,73.00
2018-08-25T17:42:03.030Z,72.99
2018-08-25T17:44:32.035Z,73.46
2018-08-25T17:47:01.040Z,72.80
2018-08-25T17:49:29.918Z,73.86
2018-08-25T17:51:58.863Z,74.05
2018-08-25T17:54:27.822Z,73.31
2018-08-25T17:56:56.756Z,73.77
2018-08-25T17:59:25.633Z,73.97
2018-08-25T18:01:54.613Z,73.87
2018-08-25T18:04:23.541Z,73.68
2018-08-25T18:06:52.440Z,74.03
2018-08-25T18:09:21.449Z,74.26
2018-08-25T18:11:50.364Z,74.54
2018-08-25T18:14:19.274Z,75.12
2018-08-25T18:16:48.179Z,74.86
2018-08-25T18:19:17.143Z,74.91
2018-08-25T18:21:46.039Z,74.44
2018-08-25T18:24:15.472Z,74.05
2018-08-25T18:26:44.357Z,74.45
2018-08-25T18:29:13.253Z,74.29
2018-08-25T18:31:42.290Z,75.10
2018-08-25T18:34:11.256Z,74.94
2018-08-25T18:36:40.238Z,75.00
2018-08-25T18:39:11.233Z,75.80
2018-08-25T18:41:40.158Z,75.07
2018-08-25T18:44:09.100Z,75.20
2018-08-25T18:46:38.249Z,75.37
2018-08-25T18:49:07.181Z,74.92
2018-08-25T18:51:36.090Z,75.97
2018-08-25T18:54:05.112Z,75.24
2018-08-25T18:56:34.069Z,75.95
2018-08-25T18:59:02.989Z,75.73
2018-08-25T19:01:31.953Z,75.21
2018-08-25T19:04:01.601Z,75.64
2018-08-25T19:06:30.490Z,75.18
2018-08-25T19:08:59.567Z,76.22
2018-08-25T19:11:28.457Z,75.80
2018-08-25T19:13:57.417Z,75.41
2018-08-25T19:16:28.472Z,76.35
2018-08-25T19:18:57.407Z,76.52
2018-08-25T19:21:26.372Z,77.09
2018-08-25T19:23:55.570Z,76.44
2018-08-25T19:26:24.507Z,77.16
2018-08-25T19:28:53.597Z,77.15
2018-08-25T19:31:22.519Z,77.30
2018-08-25T19:33:51.565Z,77.54
2018-08-25T19:36:20.594Z,76.87
2018-08-25T19:38:49.945Z,76.68
2018-08-25T19:41:19.933Z,76.62
2018-08-25T19:43:48.926Z,76.08
2018-08-25T19:46:17.831Z,77.72
2018-08-25T19:48:46.921Z,77.22
2018-08-25T19:51:15.967Z,77.40
2018-08-25T19:53:44.882Z,76.32
2018-08-25T19:56:13.816Z,76.32
2018-08-25T19:58:42.855Z,76.92
2018-08-25T20:01:11.787Z,77.04
2018-08-25T20:03:40.659Z,77.44
2018-08-25T20:06:09.879Z,77.10
2018-08-25T20:08:38.811Z,76.00
2018-08-25T20:11:07.717Z,76.43
2018-08-25T20:13:36.775Z,77.14
2018-08-25T20:16:05.790Z,76.82
2018-08-25T20:18:34.707Z,77.67
2018-08-25T20:21:03.847Z,76.33
2018-08-25T20:23:32.659Z,76.46
2018-08-25T20:26:01.548Z,77.35
2018-08-25T20:28:30.498Z,76.66
2018-08-25T20:31:00.387Z,77.46
2018-08-25T20:33:29.282Z,76.75
2018-08-25T20:35:58.497Z,75.77
2018-08-25T20:38:27.409Z,76.66
2018-08-25T20:40:56.387Z,76.00
2018-08-25T20:43:25.392Z,76.46
2018-08-25T20:45:55.015Z,75.88
2018-08-25T20:48:23.882Z,76.86
2018-08-25T20:50:52.973Z,76.92
2018-08-25T20:53:26.927Z,75.68
2018-08-25T20:55:55.857Z,75.74
2018-08-25T20:58:24.742Z,75.96
2018-08-25T21:00:53.670Z,75.34
2018-08-25T21:03:23.619Z,75.68
2018-08-25T21:05:53.104Z,76.72
2018-08-25T21:08:22.824Z,75.25
2018-08-25T21:10:51.907Z,76.16
2018-08-25T21:13:20.895Z,77.48
2018-08-25T21:15:49.872Z,76.23
2018-08-25T21:18:18.752Z,76.44
2018-08-25T21:20:47.748Z,76.74
2018-08-25T21:23:16.651Z,76.31
2018-08-25T21:25:45.579Z,76.69
2018-08-25T21:28:14.511Z,76.60
2018-08-25T21:30:44.408Z,75.86
2018-08-25T21:33:13.377Z,76.54
2018-08-25T21:35:42.310Z,76.42
2018-08-25T21:38:11.194Z,77.42
2018-08-25T21:40:40.398Z,76.82
2018-08-25T21:43:09.301Z,77.46
2018-08-25T21:45:38.184Z,77.76
2018-08-25T21:48:07.239Z,77.48
2018-08-25T21:50:36.178Z,77.69
2018-08-25T21:53:05.210Z,78.88
2018-08-25T21:55:34.181Z,78.03
2018-08-25T21:58:03.129Z,78.18
2018-08-25T22:00:32.029Z,78.14
2018-08-25T22:03:01.004Z,78.55
2018-08-25T22:05:29.984Z,79.00
2018-08-25T22:07:58.893Z,78.47
2018-08-25T22:10:29.985Z,78.77
2018-08-25T22:12:58.868Z,78.72
2018-08-25T22:15:27.751Z,78.82
2018-08-25T22:17:56.686Z,78.96
2018-08-25T22:20:25.553Z,80.15
2018-08-25T22:22:54.429Z,78.76
2018-08-25T22:25:23.395Z,79.87
2018-08-25T22:27:52.285Z,79.89
2018-08-25T22:30:21.407Z,80.45
2018-08-25T22:32:50.373Z,80.51
2018-08-25T22:35:19.250Z,80.23
2018-08-25T22:37:48.217Z,81.18
2018-08-25T22:40:17.157Z,80.37
2018-08-25T22:42:46.078Z,81.51
2018-08-25T22:45:15.046Z,81.07
2018-08-25T22:47:44.036Z,81.23
2018-08-25T22:50:13.017Z,81.45
2018-08-25T22:52:47.425Z,80.48
2018-08-25T22:55:16.393Z,80.99
2018-08-25T22:57:45.266Z,81.75
2018-08-25T23:00:14.257Z,82.09
2018-08-25T23:02:43.136Z,82.45
2018-08-25T23:05:12.038Z,81.51
2018-08-25T23:07:41.079Z,81.86
2018-08-25T23:10:09.925Z,82.20
2018-08-25T23:12:38.827Z,82.76
2018-08-25T23:15:07.821Z,82.31
2018-08-25T23:17:36.718Z,82.73
2018-08-25T23:20:05.614Z,82.19
2018-08-25T23:22:34.554Z,82.40
2018-08-25T23:25:03.443Z,82.76
2018-08-25T23:27:32.366Z,82.95
2018-08-25T23:30:01.308Z,82.99
2018-08-25T23:32:30.226Z,82.40
2018-08-25T23:34:59.118Z,82.17
2018-08-25T23:37:28.050Z,82.85
2018-08-25T23:39:56.945Z,82.50
2018-08-25T23:42:25.840Z,82.39
2018-08-25T23:44:54.799Z,83.18
2018-08-25T23:47:23.660Z,82.82
2018-08-25T23:49:52.560Z,82.97
2018-08-25T23:52:21.520Z,82.46
2018-08-25T23:54:50.419Z,82.35
2018-08-25T23:57:19.358Z,83.13
2018-08-25T23:59:48.315Z,82.98
